createdAt,value
2023-01-13T00:00:41.280Z,9.098
2023-01-13T00:01:40.872Z,9.106
2023-01-13T00:02:41.430Z,9.173
2023-01-13T00:03:41.001Z,9.085
2023-01-13T00:04:41.590Z,9.088
2023-01-13T00:05:41.493Z,9.085
2023-01-13T00:06:40.975Z,9.085
2023-01-13T00:07:40.622Z,9.128
2023-01-13T00:08:41.132Z,9.122
2023-01-13T00:09:40.686Z,9.141
2023-01-13T00:10:41.196Z,9.144
2023-01-13T00:11:40.681Z,9.101
2023-01-13T00:12:41.273Z,9.085
2023-01-13T00:13:40.734Z,9.101
2023-01-13T00:14:41.258Z,9.085
2023-01-13T00:15:40.754Z,9.136
2023-01-13T00:16:41.522Z,9.114
2023-01-13T00:17:40.959Z,9.117
2023-01-13T00:18:41.409Z,9.136
2023-01-13T00:19:40.849Z,9.162
2023-01-13T00:20:41.384Z,9.104
2023-01-13T00:21:40.885Z,9.106
2023-01-13T00:22:41.282Z,9.088
2023-01-13T00:23:40.809Z,9.026
2023-01-13T00:24:41.277Z,9.013
2023-01-13T00:25:40.717Z,8.919
2023-01-13T00:26:41.217Z,8.903
2023-01-13T00:27:40.631Z,8.882
2023-01-13T00:28:41.097Z,8.802
2023-01-13T00:29:41.541Z,8.778
2023-01-13T00:30:41.061Z,8.743
2023-01-13T00:31:40.769Z,8.759
2023-01-13T00:32:41.222Z,8.738
2023-01-13T00:33:40.629Z,8.668
2023-01-13T00:34:41.124Z,8.620
2023-01-13T00:35:41.541Z,8.537
2023-01-13T00:36:41.026Z,8.596
2023-01-13T00:37:41.431Z,8.529
2023-01-13T00:38:40.905Z,8.441
2023-01-13T00:39:41.467Z,8.468
2023-01-13T00:40:41.106Z,8.457
2023-01-13T00:41:40.563Z,8.433
2023-01-13T00:42:41.054Z,8.425
2023-01-13T00:43:41.548Z,8.375
2023-01-13T00:44:41.046Z,8.334
2023-01-13T00:45:40.579Z,8.401
2023-01-13T00:46:41.241Z,8.476
2023-01-13T00:47:40.908Z,8.444
2023-01-13T00:48:41.408Z,8.572
2023-01-13T00:49:40.920Z,8.559
2023-01-13T00:50:41.457Z,8.519
2023-01-13T00:51:41.173Z,8.535
2023-01-13T00:52:42.318Z,8.519
2023-01-13T00:53:40.947Z,8.444
2023-01-13T00:54:40.645Z,8.460
2023-01-13T00:55:41.207Z,8.457
2023-01-13T00:56:45.597Z,8.543
2023-01-13T00:57:41.099Z,8.460
2023-01-13T00:58:41.537Z,8.537
2023-01-13T00:59:41.026Z,8.543
2023-01-13T01:00:41.578Z,8.634
2023-01-13T01:01:41.607Z,8.626
2023-01-13T01:02:42.558Z,8.569
2023-01-13T01:03:41.125Z,8.620
2023-01-13T01:04:40.762Z,8.644
2023-01-13T01:05:41.266Z,8.631
2023-01-13T01:06:40.721Z,8.674
2023-01-13T01:07:41.242Z,8.716
2023-01-13T01:08:40.726Z,8.764
2023-01-13T01:09:41.259Z,8.751
2023-01-13T01:10:40.695Z,8.711
2023-01-13T01:11:41.250Z,8.636
2023-01-13T01:12:40.818Z,8.716
2023-01-13T01:13:41.265Z,8.706
2023-01-13T01:14:40.952Z,8.743
2023-01-13T01:15:41.431Z,8.762
2023-01-13T01:16:41.288Z,8.756
2023-01-13T01:17:40.817Z,8.951
2023-01-13T01:18:41.284Z,8.890
2023-01-13T01:19:40.851Z,8.954
2023-01-13T01:20:41.422Z,8.991
2023-01-13T01:21:40.973Z,8.935
2023-01-13T01:22:41.490Z,8.954
2023-01-13T01:23:40.969Z,8.935
2023-01-13T01:24:41.501Z,9.013
2023-01-13T01:25:40.977Z,9.026
2023-01-13T01:26:41.482Z,9.112
2023-01-13T01:27:40.949Z,9.010
2023-01-13T01:28:41.551Z,8.935
2023-01-13T01:29:41.024Z,8.959
2023-01-13T01:30:41.463Z,8.962
2023-01-13T01:31:41.187Z,9.047
2023-01-13T01:32:40.709Z,9.112
2023-01-13T01:33:41.196Z,9.058
2023-01-13T01:34:40.748Z,9.010
2023-01-13T01:35:41.160Z,8.975
2023-01-13T01:36:40.689Z,9.013
2023-01-13T01:37:41.157Z,8.973
2023-01-13T01:38:41.654Z,8.970
2023-01-13T01:39:41.243Z,9.039
2023-01-13T01:40:40.861Z,9.104
2023-01-13T01:41:41.445Z,9.074
2023-01-13T01:42:41.019Z,9.050
2023-01-13T01:43:40.675Z,9.096
2023-01-13T01:44:41.313Z,9.050
2023-01-13T01:45:40.879Z,9.063
2023-01-13T01:46:41.436Z,9.047
2023-01-13T01:47:41.362Z,9.005
2023-01-13T01:48:40.782Z,8.973
2023-01-13T01:49:40.628Z,9.071
2023-01-13T01:50:41.125Z,9.026
2023-01-13T01:51:40.613Z,9.026
2023-01-13T01:52:41.101Z,8.973
2023-01-13T01:53:40.686Z,9.058
2023-01-13T01:54:41.249Z,9.037
2023-01-13T01:55:40.812Z,8.965
2023-01-13T01:56:41.278Z,9.013
2023-01-13T01:57:40.904Z,9.085
2023-01-13T01:58:41.437Z,9.039
2023-01-13T01:59:40.908Z,9.077
2023-01-13T02:00:41.485Z,9.034
2023-01-13T02:01:41.397Z,8.994
2023-01-13T02:02:41.711Z,8.975
2023-01-13T02:03:41.325Z,9.031
2023-01-13T02:04:40.764Z,9.034
2023-01-13T02:05:41.266Z,8.957
2023-01-13T02:06:40.697Z,8.871
2023-01-13T02:07:41.168Z,8.909
2023-01-13T02:08:40.820Z,8.909
2023-01-13T02:09:41.381Z,8.863
2023-01-13T02:10:40.859Z,8.834
2023-01-13T02:11:41.320Z,8.893
2023-01-13T02:12:40.914Z,8.967
2023-01-13T02:13:41.558Z,8.925
2023-01-13T02:14:41.147Z,8.941
2023-01-13T02:15:40.909Z,8.938
2023-01-13T02:16:41.630Z,8.879
2023-01-13T02:17:41.213Z,8.909
2023-01-13T02:18:40.966Z,8.874
2023-01-13T02:19:41.475Z,8.842
2023-01-13T02:20:41.018Z,8.938
2023-01-13T02:21:41.484Z,8.871
2023-01-13T02:22:41.034Z,8.938
2023-01-13T02:23:41.605Z,8.951
2023-01-13T02:24:41.203Z,8.970
2023-01-13T02:25:41.181Z,8.951
2023-01-13T02:26:41.281Z,8.994
2023-01-13T02:27:41.556Z,8.941
2023-01-13T02:28:41.232Z,8.973
2023-01-13T02:29:40.929Z,9.023
2023-01-13T02:30:41.627Z,9.106
2023-01-13T02:31:41.169Z,9.128
2023-01-13T02:32:40.970Z,9.069
2023-01-13T02:33:41.481Z,9.128
2023-01-13T02:34:40.932Z,9.138
2023-01-13T02:35:40.677Z,9.088
2023-01-13T02:36:41.169Z,9.055
2023-01-13T02:37:40.672Z,9.079
2023-01-13T02:38:41.162Z,9.189
2023-01-13T02:39:40.686Z,9.168
2023-01-13T02:40:41.204Z,9.173
2023-01-13T02:41:40.646Z,9.138
2023-01-13T02:42:41.140Z,9.168
2023-01-13T02:43:40.664Z,9.138
2023-01-13T02:44:41.241Z,9.152
2023-01-13T02:45:40.685Z,9.240
2023-01-13T02:46:40.781Z,9.218
2023-01-13T02:47:41.328Z,9.224
2023-01-13T02:48:40.984Z,9.266
2023-01-13T02:49:41.461Z,9.339
2023-01-13T02:50:41.998Z,9.224
2023-01-13T02:51:41.550Z,9.309
2023-01-13T02:52:41.141Z,9.309
2023-01-13T02:53:40.740Z,9.250
2023-01-13T02:54:41.229Z,9.240
2023-01-13T02:55:40.804Z,9.306
2023-01-13T02:56:41.389Z,9.242
2023-01-13T02:57:40.915Z,9.240
2023-01-13T02:58:41.379Z,9.194
2023-01-13T02:59:40.853Z,9.232
2023-01-13T03:00:41.509Z,9.290
2023-01-13T03:01:41.857Z,9.282
2023-01-13T03:02:41.418Z,9.285
2023-01-13T03:03:41.120Z,9.314
2023-01-13T03:04:40.661Z,9.355
2023-01-13T03:05:41.292Z,9.304
2023-01-13T03:06:40.846Z,9.314
2023-01-13T03:07:41.416Z,9.213
2023-01-13T03:08:41.384Z,9.277
2023-01-13T03:09:41.221Z,9.280
2023-01-13T03:10:40.795Z,9.304
2023-01-13T03:11:40.855Z,9.261
2023-01-13T03:12:41.395Z,9.229
2023-01-13T03:13:41.181Z,9.213
2023-01-13T03:14:40.784Z,9.245
2023-01-13T03:15:41.507Z,9.253
2023-01-13T03:16:41.078Z,9.290
2023-01-13T03:17:40.757Z,9.256
2023-01-13T03:18:41.460Z,9.226
2023-01-13T03:19:40.889Z,9.141
2023-01-13T03:20:41.535Z,9.125
2023-01-13T03:21:41.103Z,9.101
2023-01-13T03:22:40.991Z,9.039
2023-01-13T03:23:44.486Z,9.079
2023-01-13T03:24:42.675Z,9.071
2023-01-13T03:25:41.329Z,9.112
2023-01-13T03:26:40.937Z,9.063
2023-01-13T03:27:41.548Z,9.192
2023-01-13T03:28:41.127Z,9.069
2023-01-13T03:29:41.026Z,9.071
2023-01-13T03:30:40.993Z,9.079
2023-01-13T03:31:41.654Z,9.186
2023-01-13T03:32:41.238Z,9.181
2023-01-13T03:33:40.679Z,9.176
2023-01-13T03:34:41.283Z,9.117
2023-01-13T03:35:41.004Z,9.194
2023-01-13T03:36:41.507Z,9.290
2023-01-13T03:37:41.057Z,9.266
2023-01-13T03:38:41.598Z,9.178
2023-01-13T03:39:41.223Z,9.216
2023-01-13T03:40:40.783Z,9.136
2023-01-13T03:41:41.391Z,9.186
2023-01-13T03:42:41.091Z,9.210
2023-01-13T03:43:43.694Z,9.250
2023-01-13T03:44:41.432Z,9.264
2023-01-13T03:45:40.969Z,9.277
2023-01-13T03:46:40.689Z,9.352
2023-01-13T03:47:41.279Z,9.336
2023-01-13T03:48:40.967Z,9.288
2023-01-13T03:49:41.603Z,9.312
2023-01-13T03:50:41.251Z,9.363
2023-01-13T03:51:40.879Z,9.347
2023-01-13T03:52:41.558Z,9.336
2023-01-13T03:53:41.126Z,9.325
2023-01-13T03:54:40.636Z,9.400
2023-01-13T03:55:41.232Z,9.365
2023-01-13T03:56:40.730Z,9.349
2023-01-13T03:57:41.298Z,9.325
2023-01-13T03:58:41.194Z,9.339
2023-01-13T03:59:40.778Z,9.376
2023-01-13T04:00:41.498Z,9.376
2023-01-13T04:01:41.481Z,9.416
2023-01-13T04:02:41.409Z,9.365
2023-01-13T04:03:41.301Z,9.400
2023-01-13T04:04:41.314Z,9.349
2023-01-13T04:05:41.001Z,9.336
2023-01-13T04:06:41.684Z,9.352
2023-01-13T04:07:41.470Z,9.352
2023-01-13T04:08:41.100Z,9.325
2023-01-13T04:09:41.152Z,9.339
2023-01-13T04:10:40.732Z,9.325
2023-01-13T04:11:41.352Z,9.405
2023-01-13T04:12:41.000Z,9.400
2023-01-13T04:13:40.856Z,9.352
2023-01-13T04:14:41.433Z,9.314
2023-01-13T04:15:41.222Z,9.376
2023-01-13T04:16:41.258Z,9.376
2023-01-13T04:17:40.911Z,9.389
2023-01-13T04:18:41.499Z,9.365
2023-01-13T04:19:41.135Z,9.429
2023-01-13T04:20:40.716Z,9.408
2023-01-13T04:21:41.407Z,9.443
2023-01-13T04:22:41.046Z,9.440
2023-01-13T04:23:41.639Z,9.384
2023-01-13T04:24:41.301Z,9.349
2023-01-13T04:25:40.860Z,9.363
2023-01-13T04:26:41.437Z,9.352
2023-01-13T04:27:41.118Z,9.363
2023-01-13T04:28:40.873Z,9.363
2023-01-13T04:29:41.596Z,9.408
2023-01-13T04:30:41.174Z,9.405
2023-01-13T04:31:41.044Z,9.389
2023-01-13T04:32:40.623Z,9.448
2023-01-13T04:33:41.535Z,9.512
2023-01-13T04:34:41.104Z,9.475
2023-01-13T04:35:40.788Z,9.504
2023-01-13T04:36:41.551Z,9.472
2023-01-13T04:37:41.168Z,9.432
2023-01-13T04:38:40.771Z,9.456
2023-01-13T04:39:41.272Z,9.429
2023-01-13T04:40:40.810Z,9.435
2023-01-13T04:41:41.444Z,9.416
2023-01-13T04:42:40.904Z,9.429
2023-01-13T04:43:41.495Z,9.443
2023-01-13T04:44:41.040Z,9.408
2023-01-13T04:45:40.648Z,9.384
2023-01-13T04:46:41.577Z,9.405
2023-01-13T04:47:41.279Z,9.427
2023-01-13T04:48:40.906Z,9.448
2023-01-13T04:49:41.468Z,9.472
2023-01-13T04:50:41.200Z,9.443
2023-01-13T04:51:40.801Z,9.501
2023-01-13T04:52:41.295Z,9.464
2023-01-13T04:53:41.018Z,9.416
2023-01-13T04:54:41.579Z,9.475
2023-01-13T04:55:41.116Z,9.424
2023-01-13T04:56:40.725Z,9.429
2023-01-13T04:57:41.526Z,9.405
2023-01-13T04:58:41.121Z,9.419
2023-01-13T04:59:40.671Z,9.424
2023-01-13T05:00:41.328Z,9.392
2023-01-13T05:01:41.635Z,9.379
2023-01-13T05:02:41.532Z,9.419
2023-01-13T05:03:41.052Z,9.443
2023-01-13T05:04:41.755Z,9.403
2023-01-13T05:05:41.473Z,9.421
2023-01-13T05:06:41.216Z,9.405
2023-01-13T05:07:40.771Z,9.427
2023-01-13T05:08:41.418Z,9.416
2023-01-13T05:09:41.064Z,9.424
2023-01-13T05:10:41.820Z,9.411
2023-01-13T05:11:41.351Z,9.464
2023-01-13T05:12:40.990Z,9.453
2023-01-13T05:13:40.628Z,9.411
2023-01-13T05:14:41.191Z,9.400
2023-01-13T05:15:40.765Z,9.413
2023-01-13T05:16:41.590Z,9.424
2023-01-13T05:17:41.109Z,9.427
2023-01-13T05:18:40.658Z,9.408
2023-01-13T05:19:41.435Z,9.365
2023-01-13T05:20:40.964Z,9.392
2023-01-13T05:21:41.646Z,9.427
2023-01-13T05:22:41.276Z,9.408
2023-01-13T05:23:40.874Z,9.368
2023-01-13T05:24:41.648Z,9.381
2023-01-13T05:25:43.485Z,9.357
2023-01-13T05:26:41.649Z,9.384
2023-01-13T05:27:41.394Z,9.352
2023-01-13T05:28:41.070Z,9.352
2023-01-13T05:29:40.715Z,9.365
2023-01-13T05:30:41.358Z,9.379
2023-01-13T05:31:41.131Z,9.336
2023-01-13T05:32:40.744Z,9.384
2023-01-13T05:33:41.389Z,9.389
2023-01-13T05:34:41.131Z,9.373
2023-01-13T05:35:40.819Z,9.387
2023-01-13T05:36:41.332Z,9.381
2023-01-13T05:37:40.872Z,9.411
2023-01-13T05:38:41.599Z,9.392
2023-01-13T05:39:41.127Z,9.376
2023-01-13T05:40:40.734Z,9.392
2023-01-13T05:41:41.463Z,9.405
2023-01-13T05:42:41.077Z,9.429
2023-01-13T05:43:40.612Z,9.427
2023-01-13T05:44:41.300Z,9.408
2023-01-13T05:45:40.983Z,9.411
2023-01-13T05:46:41.622Z,9.475
2023-01-13T05:47:43.721Z,9.453
2023-01-13T05:48:41.243Z,9.448
2023-01-13T05:49:42.244Z,9.483
2023-01-13T05:50:40.927Z,9.427
2023-01-13T05:51:41.526Z,9.432
2023-01-13T05:52:41.090Z,9.421
2023-01-13T05:53:40.676Z,9.416
2023-01-13T05:54:41.529Z,9.416
2023-01-13T05:55:41.266Z,9.424
2023-01-13T05:56:40.899Z,9.376
2023-01-13T05:57:41.496Z,9.395
2023-01-13T05:58:41.103Z,9.392
2023-01-13T05:59:40.726Z,9.392
2023-01-13T06:00:41.946Z,9.349
2023-01-13T06:01:41.095Z,9.395
2023-01-13T06:02:40.707Z,9.403
2023-01-13T06:03:41.626Z,9.416
2023-01-13T06:04:41.356Z,9.424
2023-01-13T06:05:41.136Z,9.395
2023-01-13T06:06:40.795Z,9.352
2023-01-13T06:07:41.374Z,9.373
2023-01-13T06:08:42.919Z,9.363
2023-01-13T06:09:41.379Z,9.381
2023-01-13T06:10:41.017Z,9.405
2023-01-13T06:11:41.572Z,9.416
2023-01-13T06:12:41.084Z,9.443
2023-01-13T06:13:40.628Z,9.368
2023-01-13T06:14:41.144Z,9.341
2023-01-13T06:15:40.778Z,9.253
2023-01-13T06:16:41.487Z,9.210
2023-01-13T06:17:41.122Z,9.160
2023-01-13T06:18:40.726Z,9.136
2023-01-13T06:19:41.283Z,9.088
2023-01-13T06:20:40.906Z,9.066
2023-01-13T06:21:41.352Z,9.026
2023-01-13T06:22:40.882Z,8.991
2023-01-13T06:23:41.462Z,9.010
2023-01-13T06:24:40.951Z,9.007
2023-01-13T06:25:40.631Z,9.015
2023-01-13T06:26:41.193Z,8.989
2023-01-13T06:27:40.816Z,8.989
2023-01-13T06:28:41.409Z,8.973
2023-01-13T06:29:40.926Z,8.933
2023-01-13T06:30:42.535Z,8.935
2023-01-13T06:31:41.159Z,8.930
2023-01-13T06:32:40.828Z,8.946
2023-01-13T06:33:41.425Z,8.967
2023-01-13T06:34:41.051Z,8.957
2023-01-13T06:35:40.621Z,8.927
2023-01-13T06:36:41.184Z,8.938
2023-01-13T06:37:40.740Z,8.967
2023-01-13T06:38:41.335Z,8.991
2023-01-13T06:39:40.992Z,8.975
2023-01-13T06:40:41.604Z,8.965
2023-01-13T06:41:41.222Z,9.005
2023-01-13T06:42:40.755Z,8.981
2023-01-13T06:43:41.379Z,9.010
2023-01-13T06:44:40.984Z,8.991
2023-01-13T06:45:41.510Z,8.989
2023-01-13T06:46:41.179Z,8.989
2023-01-13T06:47:40.878Z,8.983
2023-01-13T06:48:41.406Z,9.031
2023-01-13T06:49:40.971Z,8.991
2023-01-13T06:50:41.587Z,8.946
2023-01-13T06:51:41.141Z,8.962
2023-01-13T06:52:40.762Z,8.973
2023-01-13T06:53:41.262Z,9.015
2023-01-13T06:54:40.909Z,9.037
2023-01-13T06:55:41.442Z,9.039
2023-01-13T06:56:41.132Z,9.029
2023-01-13T06:57:40.743Z,9.037
2023-01-13T06:58:41.324Z,8.997
2023-01-13T06:59:40.870Z,9.007
2023-01-13T07:00:41.753Z,9.055
2023-01-13T07:01:41.956Z,9.037
2023-01-13T07:02:41.355Z,9.066
2023-01-13T07:03:41.115Z,9.058
2023-01-13T07:04:40.856Z,9.050
2023-01-13T07:05:40.616Z,9.047
2023-01-13T07:06:41.134Z,9.063
2023-01-13T07:07:40.632Z,9.037
2023-01-13T07:08:41.223Z,9.031
2023-01-13T07:09:40.840Z,9.023
2023-01-13T07:10:41.536Z,9.058
2023-01-13T07:11:41.063Z,9.085
2023-01-13T07:12:41.608Z,9.074
2023-01-13T07:13:41.192Z,9.047
2023-01-13T07:14:40.766Z,9.074
2023-01-13T07:15:41.409Z,9.098
2023-01-13T07:16:41.087Z,9.088
2023-01-13T07:17:40.732Z,9.074
2023-01-13T07:18:41.265Z,9.050
2023-01-13T07:19:40.851Z,9.050
2023-01-13T07:20:41.445Z,9.023
2023-01-13T07:21:40.996Z,9.042
2023-01-13T07:22:41.639Z,9.045
2023-01-13T07:23:41.369Z,9.042
2023-01-13T07:24:41.046Z,9.023
2023-01-13T07:25:40.762Z,9.010
2023-01-13T07:26:41.410Z,8.989
2023-01-13T07:27:41.012Z,8.999
2023-01-13T07:28:41.579Z,8.989
2023-01-13T07:29:41.144Z,8.997
2023-01-13T07:30:40.832Z,8.962
2023-01-13T07:31:41.663Z,8.962
2023-01-13T07:32:41.400Z,8.967
2023-01-13T07:33:40.999Z,8.962
2023-01-13T07:34:41.547Z,9.005
2023-01-13T07:35:41.276Z,8.981
2023-01-13T07:36:40.961Z,8.981
2023-01-13T07:37:41.580Z,8.989
2023-01-13T07:38:41.336Z,8.981
2023-01-13T07:39:41.151Z,8.975
2023-01-13T07:40:40.814Z,8.959
2023-01-13T07:41:41.515Z,8.983
2023-01-13T07:42:41.090Z,9.023
2023-01-13T07:43:40.656Z,8.994
2023-01-13T07:45:41.059Z,8.946
2023-01-13T07:46:41.007Z,8.946
2023-01-13T07:47:40.630Z,8.999
2023-01-13T07:48:41.299Z,8.973
2023-01-13T07:49:40.915Z,9.002
2023-01-13T07:50:43.967Z,8.994
2023-01-13T07:51:40.826Z,9.037
2023-01-13T07:52:41.431Z,9.010
2023-01-13T07:53:41.028Z,9.010
2023-01-13T07:54:45.810Z,8.999
2023-01-13T07:55:41.518Z,8.970
2023-01-13T07:56:41.358Z,9.013
2023-01-13T07:57:40.997Z,9.015
2023-01-13T07:58:41.544Z,9.029
2023-01-13T07:59:41.219Z,9.029
2023-01-13T08:00:40.861Z,9.050
2023-01-13T08:01:41.022Z,9.026
2023-01-13T08:02:41.429Z,9.034
2023-01-13T08:03:41.093Z,9.005
2023-01-13T08:04:40.758Z,9.088
2023-01-13T08:05:41.499Z,9.090
2023-01-13T08:06:41.207Z,9.085
2023-01-13T08:07:40.850Z,9.101
2023-01-13T08:08:41.452Z,9.112
2023-01-13T08:09:41.097Z,9.130
2023-01-13T08:10:40.745Z,9.122
2023-01-13T08:11:41.524Z,9.128
2023-01-13T08:12:41.175Z,9.128
2023-01-13T08:13:41.544Z,9.101
2023-01-13T08:14:41.043Z,9.069
2023-01-13T08:15:40.890Z,9.093
2023-01-13T08:16:41.644Z,9.088
2023-01-13T08:17:41.603Z,9.074
2023-01-13T08:18:41.324Z,9.082
2023-01-13T08:19:41.016Z,9.050
2023-01-13T08:20:40.947Z,9.066
2023-01-13T08:21:41.632Z,9.058
2023-01-13T08:22:41.270Z,9.045
2023-01-13T08:23:41.038Z,9.053
2023-01-13T08:24:41.227Z,9.066
2023-01-13T08:25:40.881Z,9.047
2023-01-13T08:26:41.743Z,9.047
2023-01-13T08:27:41.690Z,9.021
2023-01-13T08:28:41.360Z,9.112
2023-01-13T08:29:41.070Z,9.071
2023-01-13T08:30:40.834Z,9.112
2023-01-13T08:31:40.927Z,9.106
2023-01-13T08:32:41.524Z,9.106
2023-01-13T08:33:41.260Z,9.074
2023-01-13T08:34:40.935Z,9.053
2023-01-13T08:35:41.650Z,9.066
2023-01-13T08:36:41.364Z,9.018
2023-01-13T08:37:41.012Z,9.010
2023-01-13T08:38:40.942Z,9.013
2023-01-13T08:39:41.599Z,9.039
2023-01-13T08:40:41.384Z,9.039
2023-01-13T08:41:41.030Z,9.010
2023-01-13T08:42:41.616Z,8.991
2023-01-13T08:43:41.389Z,8.962
2023-01-13T08:44:41.187Z,8.965
2023-01-13T08:45:40.948Z,8.951
2023-01-13T08:46:40.972Z,8.946
2023-01-13T08:47:41.640Z,8.925
2023-01-13T08:48:41.372Z,8.845
2023-01-13T08:49:41.609Z,8.783
2023-01-13T08:50:41.207Z,8.679
2023-01-13T08:51:41.073Z,8.610
2023-01-13T08:52:41.646Z,8.540
2023-01-13T08:53:41.179Z,8.433
2023-01-13T08:54:40.988Z,8.417
2023-01-13T08:55:41.695Z,8.377
2023-01-13T08:56:41.285Z,8.334
2023-01-13T08:57:41.146Z,8.294
2023-01-13T08:58:41.544Z,8.217
2023-01-13T08:59:41.179Z,8.190
2023-01-13T09:00:40.915Z,8.201
2023-01-13T09:01:41.494Z,8.166
2023-01-13T09:02:40.733Z,8.116
2023-01-13T09:03:41.470Z,8.033
2023-01-13T09:04:41.529Z,8.099
2023-01-13T09:05:41.176Z,8.038
2023-01-13T09:06:40.828Z,8.001
2023-01-13T09:07:41.519Z,7.974
2023-01-13T09:08:41.239Z,7.953
2023-01-13T09:09:40.923Z,7.939
2023-01-13T09:10:41.685Z,7.851
2023-01-13T09:11:41.415Z,7.862
2023-01-13T09:12:41.196Z,7.808
2023-01-13T09:13:40.912Z,7.771
2023-01-13T09:14:41.628Z,7.766
2023-01-13T09:15:41.741Z,7.683
2023-01-13T09:16:41.632Z,7.678
2023-01-13T09:17:41.453Z,7.643
2023-01-13T09:18:41.570Z,7.635
2023-01-13T09:19:41.201Z,7.587
2023-01-13T09:20:40.965Z,7.560
2023-01-13T09:21:41.666Z,7.509
2023-01-13T09:22:41.286Z,7.555
2023-01-13T09:23:40.956Z,7.531
2023-01-13T09:24:41.578Z,7.533
2023-01-13T09:25:41.263Z,7.509
2023-01-13T09:26:40.979Z,7.461
2023-01-13T09:27:41.658Z,7.493
2023-01-13T09:28:41.437Z,7.451
2023-01-13T09:29:41.071Z,7.475
2023-01-13T09:30:40.831Z,7.429
2023-01-13T09:31:43.980Z,7.376
2023-01-13T09:32:40.899Z,7.381
2023-01-13T09:33:41.545Z,7.344
2023-01-13T09:34:41.239Z,7.280
2023-01-13T09:35:40.901Z,7.234
2023-01-13T09:36:41.558Z,7.245
2023-01-13T09:37:41.191Z,7.226
2023-01-13T09:38:40.969Z,7.192
2023-01-13T09:39:40.771Z,7.432
2023-01-13T09:40:41.487Z,7.320
2023-01-13T09:41:41.228Z,7.365
2023-01-13T09:42:41.058Z,7.357
2023-01-13T09:43:40.862Z,7.338
2023-01-13T09:44:41.596Z,7.298
2023-01-13T09:45:41.270Z,7.237
2023-01-13T09:46:41.014Z,7.242
2023-01-13T09:47:40.834Z,7.258
2023-01-13T09:48:41.587Z,7.280
2023-01-13T09:49:41.186Z,7.309
2023-01-13T09:50:40.856Z,7.317
2023-01-13T09:51:41.790Z,7.258
2023-01-13T09:52:44.420Z,7.328
2023-01-13T09:53:41.051Z,7.280
2023-01-13T09:54:40.715Z,7.280
2023-01-13T09:55:41.327Z,7.261
2023-01-13T09:56:40.992Z,7.272
2023-01-13T09:57:40.898Z,7.200
2023-01-13T09:58:41.569Z,7.282
2023-01-13T09:59:41.162Z,7.320
2023-01-13T10:00:40.807Z,7.314
2023-01-13T10:01:40.930Z,7.344
2023-01-13T10:02:41.628Z,7.293
2023-01-13T10:03:41.470Z,7.333
2023-01-13T10:04:41.266Z,7.336
2023-01-13T10:05:41.218Z,7.333
2023-01-13T10:06:41.008Z,7.322
2023-01-13T10:07:43.020Z,7.317
2023-01-13T10:08:41.624Z,7.333
2023-01-13T10:09:41.224Z,7.352
2023-01-13T10:10:40.864Z,7.365
2023-01-13T10:11:41.555Z,7.403
2023-01-13T10:12:41.115Z,7.370
2023-01-13T10:13:41.065Z,7.403
2023-01-13T10:14:40.724Z,7.392
2023-01-13T10:15:41.372Z,7.395
2023-01-13T10:16:40.695Z,7.400
2023-01-13T10:17:41.474Z,7.413
2023-01-13T10:18:41.167Z,7.400
2023-01-13T10:19:40.865Z,7.405
2023-01-13T10:20:41.509Z,7.378
2023-01-13T10:21:41.143Z,7.381
2023-01-13T10:22:41.066Z,7.400
2023-01-13T10:23:40.719Z,7.445
2023-01-13T10:24:41.400Z,7.416
2023-01-13T10:25:41.042Z,7.403
2023-01-13T10:26:40.783Z,7.429
2023-01-13T10:27:41.484Z,7.403
2023-01-13T10:28:41.112Z,7.419
2023-01-13T10:29:40.711Z,7.459
2023-01-13T10:30:41.596Z,7.451
2023-01-13T10:31:41.483Z,7.456
2023-01-13T10:32:41.121Z,7.488
2023-01-13T10:33:40.811Z,7.509
2023-01-13T10:34:41.420Z,7.483
2023-01-13T10:35:41.061Z,7.496
2023-01-13T10:36:40.710Z,7.512
2023-01-13T10:37:41.375Z,7.477
2023-01-13T10:38:41.061Z,7.496
2023-01-13T10:39:41.412Z,7.475
2023-01-13T10:40:41.036Z,7.475
2023-01-13T10:41:40.764Z,7.541
2023-01-13T10:42:41.428Z,7.560
2023-01-13T10:43:41.212Z,7.541
2023-01-13T10:44:40.877Z,7.539
2023-01-13T10:45:41.642Z,7.531
2023-01-13T10:46:41.470Z,7.557
2023-01-13T10:47:41.183Z,7.563
2023-01-13T10:48:40.810Z,7.557
2023-01-13T10:49:41.433Z,7.608
2023-01-13T10:50:41.289Z,7.696
2023-01-13T10:51:40.930Z,7.670
2023-01-13T10:52:40.907Z,7.744
2023-01-13T10:53:41.536Z,7.808
2023-01-13T10:54:41.091Z,7.840
2023-01-13T10:55:40.994Z,7.827
2023-01-13T10:56:40.754Z,7.875
2023-01-13T10:57:41.550Z,7.937
2023-01-13T10:58:41.195Z,7.902
2023-01-13T10:59:41.537Z,7.929
2023-01-13T11:00:41.331Z,7.929
2023-01-13T11:01:41.630Z,7.979
2023-01-13T11:02:44.543Z,8.051
2023-01-13T11:03:41.503Z,8.049
2023-01-13T11:04:41.305Z,8.126
2023-01-13T11:05:41.138Z,8.177
2023-01-13T11:06:40.778Z,8.236
2023-01-13T11:07:41.438Z,8.273
2023-01-13T11:08:41.112Z,8.359
2023-01-13T11:09:40.836Z,8.447
2023-01-13T11:10:41.549Z,8.545
2023-01-13T11:11:41.202Z,8.572
2023-01-13T11:12:41.016Z,8.583
2023-01-13T11:13:41.615Z,8.556
2023-01-13T11:14:41.301Z,8.508
2023-01-13T11:15:40.981Z,8.511
2023-01-13T11:16:44.748Z,8.548
2023-01-13T11:17:41.382Z,8.487
2023-01-13T11:18:41.004Z,8.569
2023-01-13T11:19:40.743Z,8.564
2023-01-13T11:20:41.554Z,8.527
2023-01-13T11:21:41.319Z,8.583
2023-01-13T11:22:41.123Z,8.634
2023-01-13T11:23:40.891Z,8.663
2023-01-13T11:24:41.558Z,8.650
2023-01-13T11:25:41.212Z,8.674
2023-01-13T11:26:40.939Z,8.695
2023-01-13T11:27:41.670Z,8.743
2023-01-13T11:28:41.427Z,8.738
2023-01-13T11:29:41.166Z,8.708
2023-01-13T11:30:40.896Z,8.732
2023-01-13T11:31:41.778Z,8.791
2023-01-13T11:32:41.525Z,8.834
2023-01-13T11:33:41.067Z,8.850
2023-01-13T11:34:40.735Z,8.759
2023-01-13T11:35:41.632Z,8.740
2023-01-13T11:36:41.247Z,8.933
2023-01-13T11:37:40.864Z,9.010
2023-01-13T11:38:41.439Z,9.157
2023-01-13T11:39:41.188Z,9.371
2023-01-13T11:40:41.078Z,9.424
2023-01-13T11:41:40.859Z,9.427
2023-01-13T11:42:41.531Z,9.493
2023-01-13T11:43:41.192Z,9.619
2023-01-13T11:44:40.915Z,9.760
2023-01-13T11:45:41.084Z,9.662
2023-01-13T11:46:40.860Z,9.592
2023-01-13T11:47:41.650Z,9.582
2023-01-13T11:48:41.498Z,9.459
2023-01-13T11:49:41.209Z,9.328
2023-01-13T11:50:40.875Z,9.250
2023-01-13T11:51:41.616Z,9.122
2023-01-13T11:52:41.466Z,9.170
2023-01-13T11:53:41.211Z,9.138
2023-01-13T11:54:41.075Z,9.063
2023-01-13T11:55:40.724Z,9.050
2023-01-13T11:56:41.591Z,9.018
2023-01-13T11:57:41.474Z,8.999
2023-01-13T11:58:50.141Z,9.029
2023-01-13T11:59:41.262Z,9.088
2023-01-13T12:00:41.032Z,9.114
2023-01-13T12:01:41.268Z,9.138
2023-01-13T12:02:41.288Z,9.205
2023-01-13T12:03:41.202Z,9.245
2023-01-13T12:04:40.959Z,9.189
2023-01-13T12:05:41.589Z,9.186
2023-01-13T12:06:41.388Z,9.138
2023-01-13T12:07:41.148Z,9.106
2023-01-13T12:08:41.006Z,9.085
2023-01-13T12:09:41.019Z,9.029
2023-01-13T12:10:40.827Z,8.957
2023-01-13T12:11:41.586Z,8.946
2023-01-13T12:13:41.665Z,8.935
2023-01-13T12:14:41.698Z,8.898
2023-01-13T12:15:41.743Z,8.901
2023-01-13T12:16:41.638Z,8.853
2023-01-13T12:17:41.626Z,8.845
2023-01-13T12:18:41.487Z,8.885
2023-01-13T12:19:41.059Z,8.863
2023-01-13T12:20:40.820Z,8.853
2023-01-13T12:21:41.531Z,8.834
2023-01-13T12:22:41.196Z,8.842
2023-01-13T12:23:40.809Z,8.845
2023-01-13T12:24:41.440Z,8.847
2023-01-13T12:25:41.242Z,8.802
2023-01-13T12:26:40.972Z,8.786
2023-01-13T12:27:40.797Z,8.812
2023-01-13T12:28:41.529Z,8.786
2023-01-13T12:29:41.453Z,8.783
2023-01-13T12:30:42.524Z,8.770
2023-01-13T12:31:41.499Z,8.748
2023-01-13T12:32:41.289Z,8.754
2023-01-13T12:33:40.986Z,8.770
2023-01-13T12:34:41.600Z,8.743
2023-01-13T12:35:42.663Z,8.698
2023-01-13T12:36:41.769Z,8.708
2023-01-13T12:37:41.392Z,8.684
2023-01-13T12:38:41.104Z,8.703
2023-01-13T12:39:40.739Z,8.639
2023-01-13T12:40:41.539Z,8.612
2023-01-13T12:41:41.226Z,8.631
2023-01-13T12:42:40.821Z,8.623
2023-01-13T12:43:41.470Z,8.599
2023-01-13T12:44:41.146Z,8.569
2023-01-13T12:45:40.909Z,8.577
2023-01-13T12:46:40.852Z,8.561
2023-01-13T12:47:41.584Z,8.577
2023-01-13T12:48:41.219Z,8.610
2023-01-13T12:49:40.963Z,8.569
2023-01-13T12:50:40.910Z,8.583
2023-01-13T12:51:41.663Z,8.577
2023-01-13T12:52:41.345Z,8.567
2023-01-13T12:53:41.063Z,8.631
2023-01-13T12:54:40.731Z,8.647